createdAt,value
2022-12-14T00:00:00.000Z,45.16
2022-12-14T00:15:00.000Z,42.91
2022-12-14T00:30:00.000Z,42.04
2022-12-14T00:45:00.000Z,42.01
2022-12-14T01:00:00.000Z,42.2
2022-12-14T01:15:00.000Z,40.95
2022-12-14T01:45:00.000Z,41
2022-12-14T01:45:00.000Z,40.86
2022-12-14T02:00:00.000Z,40.32
2022-12-14T02:15:00.000Z,40.49
2022-12-14T02:30:00.000Z,40.65
2022-12-14T02:45:00.000Z,40.71
2022-12-14T03:00:00.000Z,40.59
2022-12-14T03:15:00.000Z,40.05
2022-12-14T03:30:00.000Z,39.67
2022-12-14T03:45:00.000Z,42.11
2022-12-14T04:15:00.000Z,40
2022-12-14T04:15:00.000Z,40.08
2022-12-14T04:30:00.000Z,40.24
2022-12-14T04:45:00.000Z,40.19
2022-12-14T05:00:00.000Z,40.71
2022-12-14T05:15:00.000Z,40.84
2022-12-14T05:30:00.000Z,42.45
2022-12-14T05:45:00.000Z,44.47
2022-12-14T06:00:00.000Z,51.3
2022-12-14T06:15:00.000Z,50.49
2022-12-14T06:30:00.000Z,46.52
2022-12-14T06:45:00.000Z,48.39
2022-12-14T07:00:00.000Z,47.48
2022-12-14T07:15:00.000Z,47.35
2022-12-14T07:30:00.000Z,48.16
2022-12-14T07:45:00.000Z,48.88
2022-12-14T08:00:00.000Z,63.94
2022-12-14T08:15:00.000Z,54.35
2022-12-14T08:30:00.000Z,53.72
2022-12-14T08:45:00.000Z,50.79
2022-12-14T09:00:00.000Z,53.19
2022-12-14T09:15:00.000Z,47.25
2022-12-14T09:30:00.000Z,42.75
2022-12-14T09:45:00.000Z,44.48
2022-12-14T10:00:00.000Z,40.11
2022-12-14T10:15:00.000Z,38.64
2022-12-14T10:45:00.000Z,38.68
2022-12-14T11:00:00.000Z,34.31
2022-12-14T11:15:00.000Z,35.15
2022-12-14T11:30:00.000Z,31.58
2022-12-14T11:45:00.000Z,46.35
2022-12-14T12:00:00.000Z,49.51
2022-12-14T12:15:00.000Z,49.34
2022-12-14T12:30:00.000Z,49.15
2022-12-14T12:45:00.000Z,47.53
2022-12-14T13:00:00.000Z,46.74
2022-12-14T13:15:00.000Z,46.65
2022-12-14T13:30:00.000Z,47.91
2022-12-14T13:45:00.000Z,47.62
2022-12-14T14:00:00.000Z,50.29
2022-12-14T14:15:00.000Z,48.88
2022-12-14T14:30:00.000Z,58.91
2022-12-14T14:45:00.000Z,66.02
2022-12-14T15:00:00.000Z,58.53
2022-12-14T15:15:00.000Z,49.96
2022-12-14T15:30:00.000Z,50.24
2022-12-14T15:45:00.000Z,57.14
2022-12-14T16:00:00.000Z,60.82
2022-12-14T16:15:00.000Z,56.4
2022-12-14T16:30:00.000Z,53.89
2022-12-14T16:45:00.000Z,59.69
2022-12-14T17:00:00.000Z,58.16
2022-12-14T17:15:00.000Z,59.42
2022-12-14T17:30:00.000Z,66.21
2022-12-14T17:45:00.000Z,73.93
2022-12-14T18:00:00.000Z,68.08
2022-12-14T18:15:00.000Z,43.44
2022-12-14T18:30:00.000Z,34.55
2022-12-14T18:45:00.000Z,27.32
2022-12-14T19:00:00.000Z,18.92
2022-12-14T19:15:00.000Z,16.48
2022-12-14T19:30:00.000Z,15.87
2022-12-14T19:45:00.000Z,15.65
2022-12-14T20:00:00.000Z,16.01
2022-12-14T20:15:00.000Z,20.76
2022-12-14T20:30:00.000Z,18.89
2022-12-14T20:45:00.000Z,21.56
2022-12-14T21:00:00.000Z,21.52
2022-12-14T21:15:00.000Z,21.88
2022-12-14T21:30:00.000Z,22.66
2022-12-14T21:45:00.000Z,24.24
2022-12-14T22:15:00.000Z,33
2022-12-14T22:15:00.000Z,38.08
2022-12-14T22:30:00.000Z,35.94
2022-12-14T22:45:00.000Z,36.96
2022-12-14T23:00:00.000Z,37.32
2022-12-14T23:15:00.000Z,37.85
2022-12-14T23:30:00.000Z,38.84
2022-12-14T23:45:00.000Z,37.33
